Atqasuk Edward Burnell Sr Memorial Airport Atqasuk US
ICAO: PATQ
IATA:
Category: Medium
Scheduled Services:

Elevation: 96 ft
TransAlt. 18000 ft.

Airport Communications:
ASOS:119.925
ANCHORAGE CNTR:135.3
CTAF:122.9
BARROW RDO:122.2

PATQ Zoom In..

Runways:

(A) RW 06 length 4370 ft width 90 ft
---- / hdg 61

(B) RW 24 length 4370 ft width 90 ft
---- / hdg 241

Location; PATQ
Day. 18 / Time. 17.56 Zulu
* Altimeter: 30.05
* Temperature: -33° c. 27.4°f.
* Wind from: 080° Speed 18 kn.
Dewpoint: -36° c.
Visibility: 1/2 Statute Miles.
Conditions: Haze.

PATQ 181756Z AUTO 08018KT 1/2SM HZ M33/M36 A3005 RMK AO2 SLP183 60000 T13281361 11328 21339 58020 FZRANO TSNO $


Wind From 080°
Speed 18 kn.

  YouTube Music Video
 
jpsmedia.com for Web Design  worldairports.se 2018   terms of use